createdAt,value
2017-11-30T00:02:19.328Z,25.70
2017-11-30T00:04:49.980Z,25.70
2017-11-30T00:07:20.365Z,25.70
2017-11-30T00:09:52.093Z,25.70
2017-11-30T00:12:23.285Z,25.70
2017-11-30T00:14:53.678Z,25.70
2017-11-30T00:17:24.869Z,25.80
2017-11-30T00:19:55.264Z,25.70
2017-11-30T00:22:26.946Z,25.80
2017-11-30T00:24:57.317Z,25.80
2017-11-30T00:27:27.723Z,25.80
2017-11-30T00:29:58.112Z,25.80
2017-11-30T00:32:28.544Z,25.80
2017-11-30T00:34:58.920Z,25.80
2017-11-30T00:37:29.337Z,25.80
2017-11-30T00:40:00.100Z,25.80
2017-11-30T00:42:41.908Z,25.80
2017-11-30T00:45:13.075Z,25.80
2017-11-30T00:47:43.455Z,25.80
2017-11-30T00:50:13.817Z,25.80
2017-11-30T00:52:44.552Z,25.80
2017-11-30T00:55:14.937Z,25.80
2017-11-30T00:57:45.342Z,25.90
2017-11-30T01:00:15.787Z,25.80
2017-11-30T01:02:46.136Z,26.20
2017-11-30T01:05:17.596Z,25.90
2017-11-30T01:07:47.982Z,25.90
2017-11-30T01:10:18.675Z,25.90
2017-11-30T01:12:49.086Z,25.90
2017-11-30T01:15:19.495Z,25.90
2017-11-30T01:17:50.685Z,26.20
2017-11-30T01:20:21.135Z,26.10
2017-11-30T01:22:51.933Z,26.20
2017-11-30T01:25:22.331Z,26.30
2017-11-30T01:27:53.731Z,26.30
2017-11-30T01:30:24.126Z,26.30
2017-11-30T01:32:54.539Z,26.30
2017-11-30T01:35:24.970Z,26.30
2017-11-30T01:37:55.349Z,26.30
2017-11-30T01:40:26.256Z,26.30
2017-11-30T01:42:56.638Z,26.40
2017-11-30T01:45:27.796Z,26.40
2017-11-30T01:47:58.959Z,26.40
2017-11-30T01:50:29.382Z,26.40
2017-11-30T01:53:00.150Z,26.40
2017-11-30T01:55:30.548Z,26.50
2017-11-30T01:58:01.338Z,26.50
2017-11-30T02:00:31.747Z,26.60
2017-11-30T02:03:02.163Z,26.60
2017-11-30T02:05:32.556Z,26.70
2017-11-30T02:08:02.957Z,26.70
2017-11-30T02:10:34.561Z,26.90
2017-11-30T02:13:04.982Z,26.80
2017-11-30T02:15:35.360Z,26.90
2017-11-30T02:18:06.529Z,27.00
2017-11-30T02:20:36.923Z,27.00
2017-11-30T02:23:08.514Z,27.00
2017-11-30T02:25:38.902Z,26.40
2017-11-30T02:28:10.433Z,27.00
2017-11-30T02:30:40.828Z,27.00
2017-11-30T02:33:11.261Z,27.00
2017-11-30T02:35:41.704Z,27.00
2017-11-30T02:38:12.239Z,26.90
2017-11-30T02:40:43.254Z,26.90
2017-11-30T02:43:13.967Z,26.90
2017-11-30T02:45:44.520Z,26.90
2017-11-30T02:48:15.066Z,26.90
2017-11-30T02:50:45.470Z,26.90
2017-11-30T02:53:16.379Z,26.80
2017-11-30T02:55:47.519Z,26.70
2017-11-30T02:58:19.253Z,26.70
2017-11-30T03:00:49.647Z,26.70
2017-11-30T03:03:20.072Z,26.60
2017-11-30T03:05:50.460Z,26.60
2017-11-30T03:08:20.848Z,26.60
2017-11-30T03:10:51.647Z,26.60
2017-11-30T03:13:22.065Z,26.60
2017-11-30T03:15:52.585Z,26.50
2017-11-30T03:18:22.990Z,26.50
2017-11-30T03:20:53.535Z,26.50
2017-11-30T03:23:24.013Z,26.50
2017-11-30T03:25:54.506Z,26.50
2017-11-30T03:28:25.383Z,26.50
2017-11-30T03:30:55.791Z,26.50
2017-11-30T03:33:26.226Z,26.50
2017-11-30T03:35:58.957Z,26.50
2017-11-30T03:38:29.366Z,26.50
2017-11-30T03:41:00.981Z,26.50
2017-11-30T03:43:31.437Z,26.50
2017-11-30T03:46:02.264Z,26.50
2017-11-30T03:48:32.676Z,26.50
2017-11-30T03:51:03.110Z,26.50
2017-11-30T03:53:33.525Z,26.50
2017-11-30T03:56:03.927Z,26.50
2017-11-30T03:58:34.794Z,26.50
2017-11-30T04:01:05.267Z,26.50
2017-11-30T04:03:35.686Z,26.50
2017-11-30T04:06:06.855Z,26.50
2017-11-30T04:08:37.250Z,26.40
2017-11-30T04:11:08.849Z,26.40
2017-11-30T04:13:39.258Z,26.40
2017-11-30T04:16:09.976Z,26.40
2017-11-30T04:18:40.380Z,26.30
2017-11-30T04:21:10.775Z,26.30
2017-11-30T04:23:41.189Z,26.20
2017-11-30T04:26:11.571Z,26.20
2017-11-30T04:28:43.140Z,26.20
2017-11-30T04:31:13.549Z,26.20
2017-11-30T04:33:45.056Z,26.30
2017-11-30T04:36:15.455Z,26.30
2017-11-30T04:38:45.885Z,26.30
2017-11-30T04:41:16.552Z,26.40
2017-11-30T04:43:46.967Z,26.50
2017-11-30T04:46:17.929Z,26.60
2017-11-30T04:48:48.573Z,26.70
2017-11-30T04:51:19.802Z,26.90
2017-11-30T04:53:51.031Z,27.00
2017-11-30T04:56:21.454Z,27.00
2017-11-30T04:58:52.574Z,27.00
2017-11-30T05:01:22.986Z,27.10
2017-11-30T05:03:53.564Z,27.10
2017-11-30T05:06:24.106Z,27.10
2017-11-30T05:08:54.551Z,27.10
2017-11-30T05:11:25.743Z,27.10
2017-11-30T05:13:56.146Z,27.20
2017-11-30T05:16:26.923Z,27.20
2017-11-30T05:18:57.329Z,27.20
2017-11-30T05:21:27.696Z,27.30
2017-11-30T05:23:58.109Z,27.30
2017-11-30T05:26:28.543Z,27.30
2017-11-30T05:28:59.277Z,27.40
2017-11-30T05:31:29.741Z,27.40
2017-11-30T05:34:00.414Z,27.50
2017-11-30T05:36:30.815Z,27.70
2017-11-30T05:39:01.229Z,27.80
2017-11-30T05:41:31.659Z,27.90
2017-11-30T05:44:02.064Z,28.10
2017-11-30T05:46:33.641Z,28.20
2017-11-30T05:49:04.033Z,28.10
2017-11-30T05:51:35.227Z,28.20
2017-11-30T05:54:05.616Z,28.20
2017-11-30T05:56:36.747Z,28.20
2017-11-30T05:59:08.467Z,28.20
2017-11-30T06:01:38.850Z,28.20
2017-11-30T06:04:09.720Z,28.30
2017-11-30T06:06:40.099Z,28.30
2017-11-30T06:09:11.285Z,28.40
2017-11-30T06:11:41.646Z,28.40
2017-11-30T06:14:12.066Z,28.40
2017-11-30T06:16:42.810Z,28.40
2017-11-30T06:19:13.967Z,28.50
2017-11-30T06:21:45.128Z,28.60
2017-11-30T06:24:15.569Z,28.60
2017-11-30T06:26:45.955Z,28.60
2017-11-30T06:29:17.113Z,28.70
2017-11-30T06:31:48.292Z,28.60
2017-11-30T06:34:19.285Z,28.60
2017-11-30T06:36:50.466Z,28.70
2017-11-30T06:39:20.880Z,28.70
2017-11-30T06:41:51.527Z,28.70
2017-11-30T06:44:21.998Z,28.70
2017-11-30T06:46:52.828Z,28.80
2017-11-30T06:49:23.286Z,28.90
2017-11-30T06:51:54.749Z,29.10
2017-11-30T06:54:25.904Z,29.20
2017-11-30T06:56:56.509Z,29.20
2017-11-30T06:59:27.655Z,29.30
2017-11-30T07:01:58.829Z,29.40
2017-11-30T07:04:29.611Z,29.40
2017-11-30T07:06:59.995Z,29.40
2017-11-30T07:09:30.436Z,29.40
2017-11-30T07:12:00.917Z,29.40
2017-11-30T07:14:32.156Z,29.50
2017-11-30T07:17:03.715Z,29.50
2017-11-30T07:19:34.904Z,29.50
2017-11-30T07:22:05.690Z,29.50
2017-11-30T07:24:36.857Z,29.50
2017-11-30T07:27:07.422Z,29.50
2017-11-30T07:29:37.815Z,29.40
2017-11-30T07:32:08.182Z,29.40
2017-11-30T07:34:38.892Z,29.40
2017-11-30T07:37:09.293Z,29.30
2017-11-30T07:39:39.683Z,29.30
2017-11-30T07:42:10.096Z,29.20
2017-11-30T07:44:40.503Z,29.10
2017-11-30T07:47:11.151Z,29.10
2017-11-30T07:49:41.572Z,29.10
2017-11-30T07:52:12.394Z,29.10
2017-11-30T07:54:42.775Z,29.10
2017-11-30T07:57:13.935Z,29.00
2017-11-30T07:59:44.355Z,29.00
2017-11-30T08:02:14.710Z,29.00
2017-11-30T08:04:45.516Z,28.90
2017-11-30T08:07:16.721Z,28.80
2017-11-30T08:09:47.174Z,28.80
2017-11-30T08:12:18.353Z,28.80
2017-11-30T08:14:48.867Z,28.70
2017-11-30T08:17:19.728Z,28.70
2017-11-30T08:19:50.155Z,28.70
2017-11-30T08:22:20.998Z,28.60
2017-11-30T08:24:51.602Z,28.50
2017-11-30T08:27:22.062Z,28.50
2017-11-30T08:29:52.477Z,28.40
2017-11-30T08:32:22.875Z,28.40
2017-11-30T08:34:53.668Z,28.30
2017-11-30T08:37:24.525Z,28.30
2017-11-30T08:39:56.191Z,28.30
2017-11-30T08:42:27.345Z,28.30
2017-11-30T08:44:57.736Z,28.20
2017-11-30T08:47:28.293Z,28.20
2017-11-30T08:49:59.563Z,28.20
2017-11-30T08:52:30.070Z,28.20
2017-11-30T08:55:01.261Z,28.20
2017-11-30T08:57:31.649Z,28.20
2017-11-30T09:00:02.115Z,28.20
2017-11-30T09:02:32.608Z,28.20
2017-11-30T09:05:03.054Z,28.20
2017-11-30T09:07:33.501Z,28.20
2017-11-30T09:10:04.315Z,28.20
2017-11-30T09:12:34.822Z,28.20
2017-11-30T09:15:05.281Z,28.20
2017-11-30T09:17:35.730Z,28.20
2017-11-30T09:20:06.152Z,28.20
2017-11-30T09:22:36.966Z,28.20
2017-11-30T09:25:07.391Z,28.30
2017-11-30T09:27:37.920Z,28.30
2017-11-30T09:30:08.339Z,28.30
2017-11-30T09:32:38.774Z,28.20
2017-11-30T09:35:09.203Z,28.20
2017-11-30T09:37:39.660Z,28.10
2017-11-30T09:40:10.474Z,28.10
2017-11-30T09:42:40.873Z,28.10
2017-11-30T09:45:11.295Z,28.10
2017-11-30T09:47:41.681Z,28.00
2017-11-30T09:50:12.099Z,28.00
2017-11-30T09:52:42.621Z,28.00
2017-11-30T09:55:13.153Z,28.00
2017-11-30T09:57:44.147Z,27.90
2017-11-30T10:00:15.564Z,27.90
2017-11-30T10:02:46.004Z,27.90
2017-11-30T10:05:16.757Z,27.90
2017-11-30T10:07:47.145Z,27.80
2017-11-30T10:10:18.253Z,27.80
2017-11-30T10:12:48.713Z,27.80
2017-11-30T10:15:20.258Z,27.80
2017-11-30T10:17:50.669Z,27.80
2017-11-30T10:20:21.353Z,27.70
2017-11-30T10:22:51.913Z,27.70
2017-11-30T10:25:22.571Z,27.70
2017-11-30T10:27:53.028Z,27.70
2017-11-30T10:30:24.315Z,27.70
2017-11-30T10:32:54.696Z,27.70
2017-11-30T10:35:25.870Z,27.70
2017-11-30T10:37:56.248Z,27.70
2017-11-30T10:40:27.242Z,27.70
2017-11-30T10:42:57.913Z,27.70
2017-11-30T10:45:28.311Z,27.60
2017-11-30T10:47:58.697Z,27.60
2017-11-30T10:50:29.862Z,27.60
2017-11-30T10:53:00.221Z,27.50
2017-11-30T10:55:30.626Z,27.60
2017-11-30T10:58:01.342Z,27.60
2017-11-30T11:00:31.743Z,27.50
2017-11-30T11:03:02.894Z,27.50
2017-11-30T11:05:34.096Z,27.50
2017-11-30T11:08:04.473Z,27.50
2017-11-30T11:10:35.031Z,27.40
2017-11-30T11:13:05.451Z,27.50
2017-11-30T11:15:35.965Z,27.40
2017-11-30T11:18:06.361Z,27.40
2017-11-30T11:20:37.617Z,27.40
2017-11-30T11:23:08.834Z,27.40
2017-11-30T11:25:39.617Z,27.40
2017-11-30T11:28:10.475Z,27.40
2017-11-30T11:30:41.158Z,27.40
2017-11-30T11:33:13.837Z,27.40
2017-11-30T11:35:45.257Z,27.40
2017-11-30T11:38:15.626Z,27.40
2017-11-30T11:40:47.095Z,27.40
2017-11-30T11:43:17.471Z,27.50
2017-11-30T11:45:48.167Z,27.40
2017-11-30T11:48:18.653Z,27.40
2017-11-30T11:50:49.992Z,27.50
2017-11-30T11:53:21.140Z,27.50
2017-11-30T11:55:52.363Z,27.50
2017-11-30T11:58:23.159Z,27.40
2017-11-30T12:00:53.600Z,27.50
2017-11-30T12:03:24.811Z,27.50
2017-11-30T12:05:55.346Z,27.50
2017-11-30T12:08:25.775Z,27.50
2017-11-30T12:10:56.213Z,27.50
2017-11-30T12:13:26.686Z,27.50
2017-11-30T12:15:57.539Z,27.50
2017-11-30T12:18:28.690Z,27.50
2017-11-30T12:20:59.113Z,27.40
2017-11-30T12:23:30.267Z,27.50
2017-11-30T12:26:01.517Z,27.50
2017-11-30T12:28:31.970Z,27.40
2017-11-30T12:31:02.397Z,27.50
2017-11-30T12:33:33.132Z,27.40
2017-11-30T12:36:03.640Z,27.40
2017-11-30T12:38:34.056Z,27.40
2017-11-30T12:41:05.319Z,27.40
2017-11-30T12:43:35.771Z,27.30
2017-11-30T12:46:06.578Z,27.40
2017-11-30T12:48:36.969Z,27.30
2017-11-30T12:51:07.677Z,27.30
2017-11-30T12:53:38.051Z,27.30
2017-11-30T12:56:09.398Z,27.30
2017-11-30T12:58:41.084Z,27.30
2017-11-30T13:01:11.557Z,27.30
2017-11-30T13:03:42.268Z,27.30
2017-11-30T13:06:12.936Z,27.30
2017-11-30T13:08:45.355Z,27.30
2017-11-30T13:11:15.968Z,27.30
2017-11-30T13:13:46.647Z,27.30
2017-11-30T13:16:17.380Z,27.30
2017-11-30T13:18:47.791Z,27.30
2017-11-30T13:21:18.280Z,27.30
2017-11-30T13:23:48.671Z,27.30
2017-11-30T13:26:19.279Z,27.30
2017-11-30T13:28:50.001Z,27.30
2017-11-30T13:31:20.552Z,27.30
2017-11-30T13:33:51.259Z,27.30
2017-11-30T13:36:21.804Z,27.30
2017-11-30T13:38:52.228Z,27.20
2017-11-30T13:41:22.797Z,27.20
2017-11-30T13:43:53.954Z,27.20
2017-11-30T13:46:25.885Z,27.10
2017-11-30T13:48:56.287Z,27.10
2017-11-30T13:51:26.834Z,27.10
2017-11-30T13:53:57.265Z,27.10
2017-11-30T13:56:28.602Z,27.00
2017-11-30T13:58:59.271Z,27.00
2017-11-30T14:01:30.616Z,26.90
2017-11-30T14:04:01.774Z,26.90
2017-11-30T14:06:33.098Z,26.90
2017-11-30T14:09:04.335Z,26.90
2017-11-30T14:11:34.835Z,26.90
2017-11-30T14:14:05.216Z,26.90
2017-11-30T14:16:36.777Z,26.90
2017-11-30T14:19:07.129Z,26.90
2017-11-30T14:21:37.911Z,26.90
2017-11-30T14:24:08.260Z,26.90
2017-11-30T14:26:38.722Z,26.90
2017-11-30T14:29:10.280Z,26.90
2017-11-30T14:31:40.926Z,26.80
2017-11-30T14:34:11.700Z,26.80
2017-11-30T14:36:42.856Z,26.00
2017-11-30T14:39:13.258Z,26.70
2017-11-30T14:41:50.866Z,26.60
2017-11-30T14:44:21.304Z,26.60
2017-11-30T14:46:52.221Z,26.70
2017-11-30T14:49:23.438Z,26.70
2017-11-30T14:51:54.297Z,26.60
2017-11-30T14:54:25.514Z,26.60
2017-11-30T14:56:56.159Z,26.60
2017-11-30T14:59:27.673Z,26.60
2017-11-30T15:01:58.173Z,26.60
2017-11-30T15:04:29.137Z,26.60
2017-11-30T15:06:59.566Z,26.60
2017-11-30T15:09:29.974Z,26.50
2017-11-30T15:12:00.427Z,26.50
2017-11-30T15:14:30.830Z,26.50
2017-11-30T15:17:01.249Z,26.50
2017-11-30T15:19:31.660Z,26.50
2017-11-30T15:22:03.376Z,26.50
2017-11-30T15:24:33.812Z,26.50
2017-11-30T15:27:04.391Z,26.50
2017-11-30T15:29:34.887Z,26.40
2017-11-30T15:32:05.377Z,26.40
2017-11-30T15:34:36.364Z,26.40
2017-11-30T15:37:07.656Z,26.30
2017-11-30T15:39:38.447Z,26.30
2017-11-30T15:42:09.624Z,26.30
2017-11-30T15:44:40.220Z,26.30
2017-11-30T15:47:11.397Z,26.30
2017-11-30T15:49:41.879Z,26.30
2017-11-30T15:52:12.858Z,26.30
2017-11-30T15:54:43.256Z,26.30
2017-11-30T15:57:14.529Z,26.20
2017-11-30T15:59:44.914Z,26.20
2017-11-30T16:02:15.484Z,26.20
2017-11-30T16:04:46.138Z,26.20
2017-11-30T16:07:16.516Z,26.20
2017-11-30T16:09:48.184Z,26.20
2017-11-30T16:12:19.421Z,26.20
2017-11-30T16:14:50.588Z,26.20
2017-11-30T16:17:21.093Z,26.20
2017-11-30T16:19:52.249Z,26.20
2017-11-30T16:22:23.044Z,26.20
2017-11-30T16:24:53.414Z,26.20
2017-11-30T16:27:24.009Z,26.20
2017-11-30T16:29:54.418Z,26.20
2017-11-30T16:32:24.845Z,26.20
2017-11-30T16:34:55.311Z,26.20
2017-11-30T16:37:26.731Z,26.20
2017-11-30T16:39:57.570Z,26.20
2017-11-30T16:42:27.982Z,26.20
2017-11-30T16:44:58.365Z,26.20
2017-11-30T16:47:28.744Z,26.20
2017-11-30T16:49:59.299Z,26.20
2017-11-30T16:52:29.968Z,26.20
2017-11-30T16:55:00.510Z,26.20
2017-11-30T16:57:31.291Z,26.20
2017-11-30T17:00:02.451Z,26.20
2017-11-30T17:02:33.990Z,26.20
2017-11-30T17:05:05.134Z,26.20
2017-11-30T17:07:36.354Z,26.20
2017-11-30T17:10:07.576Z,26.20
2017-11-30T17:12:37.956Z,26.20
2017-11-30T17:15:09.309Z,26.20
2017-11-30T17:17:40.486Z,26.20
2017-11-30T17:20:10.918Z,26.20
2017-11-30T17:22:41.366Z,26.20
2017-11-30T17:25:11.767Z,26.20
2017-11-30T17:27:42.724Z,26.20
2017-11-30T17:30:13.098Z,26.20
2017-11-30T17:32:44.270Z,26.20
2017-11-30T17:35:14.682Z,26.20
2017-11-30T17:37:45.097Z,26.20
2017-11-30T17:40:15.517Z,26.20
2017-11-30T17:42:46.681Z,26.20
2017-11-30T17:45:17.514Z,26.20
2017-11-30T17:47:50.366Z,26.20
2017-11-30T17:50:21.521Z,26.20
2017-11-30T17:52:52.690Z,26.20
2017-11-30T17:55:23.090Z,26.20
2017-11-30T17:57:54.668Z,26.20
2017-11-30T18:00:25.100Z,26.20
2017-11-30T18:02:55.504Z,26.20
2017-11-30T18:05:26.646Z,26.20
2017-11-30T18:07:57.814Z,26.20
2017-11-30T18:10:28.289Z,26.20
2017-11-30T18:12:58.690Z,26.20
2017-11-30T18:15:29.438Z,26.20
2017-11-30T18:17:59.805Z,26.20
2017-11-30T18:20:30.232Z,26.20
2017-11-30T18:23:00.632Z,26.20
2017-11-30T18:25:30.991Z,26.30
2017-11-30T18:28:01.681Z,26.30
2017-11-30T18:30:32.054Z,26.30
2017-11-30T18:33:02.926Z,26.30
2017-11-30T18:35:33.311Z,26.30
2017-11-30T18:38:03.996Z,26.30
2017-11-30T18:40:34.385Z,26.30
2017-11-30T18:43:04.773Z,26.30
2017-11-30T18:45:36.358Z,26.30
2017-11-30T18:48:06.758Z,26.30
2017-11-30T18:50:37.938Z,26.30
2017-11-30T18:53:08.352Z,25.40
2017-11-30T18:55:38.737Z,26.30
2017-11-30T18:58:09.541Z,26.30
2017-11-30T19:00:39.939Z,26.30
2017-11-30T19:03:10.730Z,26.30
2017-11-30T19:05:41.103Z,26.30
2017-11-30T19:08:11.498Z,26.30
2017-11-30T19:10:42.736Z,26.30
2017-11-30T19:13:13.142Z,26.30
2017-11-30T19:15:44.106Z,26.30
2017-11-30T19:18:15.302Z,26.30
2017-11-30T19:20:45.751Z,26.30
2017-11-30T19:23:16.162Z,26.30
2017-11-30T19:25:46.591Z,26.30
2017-11-30T19:28:16.966Z,26.40
2017-11-30T19:30:48.118Z,26.30
2017-11-30T19:33:19.515Z,26.30
2017-11-30T19:35:49.980Z,26.30
2017-11-30T19:38:21.187Z,26.30
2017-11-30T19:40:51.572Z,26.30
2017-11-30T19:43:22.089Z,26.30
2017-11-30T19:45:53.662Z,26.30
2017-11-30T19:48:24.152Z,26.30
2017-11-30T19:50:55.420Z,26.20
2017-11-30T19:53:25.853Z,26.20
2017-11-30T19:55:56.258Z,26.20
2017-11-30T19:58:27.464Z,26.20
2017-11-30T20:00:57.815Z,26.20
2017-11-30T20:03:28.646Z,26.20
2017-11-30T20:05:59.068Z,26.20
2017-11-30T20:08:29.429Z,26.20
2017-11-30T20:11:00.586Z,26.20
2017-11-30T20:13:31.012Z,26.20
2017-11-30T20:16:01.766Z,26.20
2017-11-30T20:18:32.155Z,26.20
2017-11-30T20:21:04.106Z,26.20
2017-11-30T20:23:35.280Z,26.20
2017-11-30T20:26:05.675Z,26.20
2017-11-30T20:28:36.896Z,26.10
2017-11-30T20:31:07.292Z,26.10
2017-11-30T20:33:38.319Z,26.10
2017-11-30T20:36:08.701Z,26.10
2017-11-30T20:38:39.104Z,26.00
2017-11-30T20:41:09.513Z,26.00
2017-11-30T20:43:39.936Z,26.00
2017-11-30T20:46:10.705Z,26.10
2017-11-30T20:48:41.125Z,26.10
2017-11-30T20:51:11.927Z,26.10
2017-11-30T20:53:42.402Z,26.10
2017-11-30T20:56:12.794Z,26.10
2017-11-30T20:58:43.232Z,26.00
2017-11-30T21:01:13.626Z,26.10
2017-11-30T21:03:44.353Z,26.10
2017-11-30T21:06:14.740Z,26.10
2017-11-30T21:08:45.160Z,26.10
2017-11-30T21:11:15.540Z,26.10
2017-11-30T21:13:45.956Z,26.10
2017-11-30T21:16:16.612Z,26.10
2017-11-30T21:18:47.026Z,26.10
2017-11-30T21:21:17.898Z,26.10
2017-11-30T21:23:48.282Z,26.10
2017-11-30T21:26:18.671Z,26.10
2017-11-30T21:28:49.875Z,26.10
2017-11-30T21:31:20.248Z,26.10
2017-11-30T21:33:51.593Z,26.00
2017-11-30T21:36:23.845Z,26.00
2017-11-30T21:38:54.594Z,26.00
2017-11-30T21:41:25.853Z,26.00
2017-11-30T21:43:56.372Z,26.00
2017-11-30T21:46:27.542Z,26.00
2017-11-30T21:48:57.922Z,26.00
2017-11-30T21:51:28.857Z,26.00
2017-11-30T21:53:59.254Z,26.00
2017-11-30T21:56:29.635Z,26.00
2017-11-30T21:59:04.266Z,26.00
2017-11-30T22:01:35.428Z,26.00
2017-11-30T22:04:18.284Z,26.00
2017-11-30T22:06:48.653Z,26.00
2017-11-30T22:09:19.803Z,26.00
2017-11-30T22:11:50.983Z,26.00
2017-11-30T22:14:29.920Z,26.00
2017-11-30T22:17:00.874Z,26.00
2017-11-30T22:19:31.262Z,26.00
2017-11-30T22:22:01.778Z,26.00
2017-11-30T22:24:32.221Z,26.00
2017-11-30T22:27:02.604Z,25.90
2017-11-30T22:29:33.772Z,25.90
2017-11-30T22:32:04.139Z,25.90
2017-11-30T22:34:35.116Z,25.90
2017-11-30T22:37:07.577Z,25.90
2017-11-30T22:39:38.174Z,25.90
2017-11-30T22:42:08.588Z,25.90
2017-11-30T22:44:39.462Z,25.90
2017-11-30T22:47:10.251Z,25.80
2017-11-30T22:49:40.689Z,25.80
2017-11-30T22:52:11.430Z,25.80
2017-11-30T22:54:41.890Z,25.80
2017-11-30T22:57:12.324Z,25.80
2017-11-30T22:59:43.501Z,25.80
2017-11-30T23:02:14.016Z,25.80
2017-11-30T23:04:45.741Z,25.80
2017-11-30T23:07:16.126Z,25.80
2017-11-30T23:09:46.548Z,25.80
2017-11-30T23:12:16.972Z,25.80
2017-11-30T23:14:47.370Z,25.80
2017-11-30T23:17:19.116Z,25.70
2017-11-30T23:19:50.290Z,25.70
2017-11-30T23:22:21.036Z,25.70
2017-11-30T23:24:51.437Z,25.70
2017-11-30T23:27:22.601Z,25.70
2017-11-30T23:29:52.997Z,25.70
2017-11-30T23:32:24.211Z,25.70
2017-11-30T23:34:55.032Z,25.70
2017-11-30T23:37:25.446Z,25.70
2017-11-30T23:39:55.874Z,25.80
2017-11-30T23:42:26.313Z,25.70
2017-11-30T23:44:56.815Z,25.80
2017-11-30T23:47:27.213Z,25.80
2017-11-30T23:49:58.405Z,25.80
2017-11-30T23:52:29.146Z,25.80
2017-11-30T23:54:59.542Z,25.90
2017-11-30T23:57:29.938Z,25.80
